createdAt,value
2022-12-04T00:00:40.387Z,3.75
2022-12-04T00:03:43.391Z,3.80
2022-12-04T00:06:46.266Z,3.77
2022-12-04T00:09:51.768Z,3.74
2022-12-04T00:12:55.832Z,3.71
2022-12-04T00:16:04.287Z,3.70
2022-12-04T00:19:09.603Z,3.66
2022-12-04T00:22:13.498Z,3.64
2022-12-04T00:25:16.434Z,3.65
2022-12-04T00:28:20.008Z,3.58
2022-12-04T00:31:25.472Z,3.53
2022-12-04T00:34:28.680Z,3.46
2022-12-04T00:37:34.344Z,3.41
2022-12-04T00:40:40.182Z,3.28
2022-12-04T00:43:43.790Z,3.35
2022-12-04T00:46:47.109Z,3.27
2022-12-04T00:49:51.198Z,3.23
2022-12-04T00:52:57.249Z,3.22
2022-12-04T00:56:04.236Z,3.20
2022-12-04T00:59:10.204Z,3.13
2022-12-04T01:02:12.778Z,3.15
2022-12-04T01:05:15.412Z,3.20
2022-12-04T01:08:18.444Z,3.26
2022-12-04T01:11:21.855Z,3.30
2022-12-04T01:14:25.404Z,3.32
2022-12-04T01:17:29.261Z,3.37
2022-12-04T01:20:33.665Z,3.43
2022-12-04T01:23:36.397Z,3.55
2022-12-04T01:26:39.584Z,3.65
2022-12-04T01:29:43.389Z,3.73
2022-12-04T01:32:50.367Z,3.72
2022-12-04T01:35:56.771Z,3.73
2022-12-04T01:39:00.391Z,3.77
2022-12-04T01:42:03.205Z,3.85
2022-12-04T01:45:24.637Z,3.88
2022-12-04T01:48:29.190Z,3.79
2022-12-04T01:51:43.857Z,3.73
2022-12-04T01:54:50.371Z,3.64
2022-12-04T01:57:52.756Z,3.55
2022-12-04T02:00:58.551Z,3.53
2022-12-04T02:04:03.479Z,3.56
2022-12-04T02:07:06.923Z,3.52
2022-12-04T02:10:10.925Z,3.48
2022-12-04T02:13:17.844Z,3.42
2022-12-04T02:16:26.375Z,3.30
2022-12-04T02:19:47.686Z,3.30
2022-12-04T02:23:08.875Z,3.24
2022-12-04T02:26:30.519Z,3.21
2022-12-04T02:29:43.738Z,3.16
2022-12-04T02:32:51.324Z,3.07
2022-12-04T02:36:01.884Z,3.07
2022-12-04T02:39:17.904Z,3.02
2022-12-04T02:42:39.609Z,2.98
2022-12-04T02:45:46.590Z,2.97
2022-12-04T02:48:53.215Z,2.96
2022-12-04T02:51:56.481Z,3.01
2022-12-04T02:55:08.133Z,3.03
2022-12-04T02:58:17.349Z,3.01
2022-12-04T03:01:24.010Z,2.93
2022-12-04T03:04:31.715Z,2.88
2022-12-04T03:07:41.454Z,2.79
2022-12-04T03:10:47.697Z,2.72
2022-12-04T03:13:54.605Z,2.68
2022-12-04T03:17:01.578Z,2.64
2022-12-04T03:20:11.431Z,2.63
2022-12-04T03:23:17.521Z,2.73
2022-12-04T03:26:30.056Z,2.73
2022-12-04T03:29:37.509Z,2.63
2022-12-04T03:32:47.462Z,2.58
2022-12-04T03:36:09.384Z,2.53
2022-12-04T03:39:18.245Z,2.54
2022-12-04T03:42:30.124Z,2.51
2022-12-04T03:45:44.856Z,2.47
2022-12-04T03:48:52.148Z,2.43
2022-12-04T03:52:06.035Z,2.44
2022-12-04T03:55:27.231Z,2.41
2022-12-04T03:58:33.141Z,2.41
2022-12-04T04:01:44.096Z,2.39
2022-12-04T04:04:53.123Z,2.39
2022-12-04T04:08:18.167Z,2.43
2022-12-04T04:11:36.056Z,2.50
2022-12-04T04:15:02.336Z,2.43
2022-12-04T04:18:23.500Z,2.49
2022-12-04T04:21:48.432Z,2.46
2022-12-04T04:24:55.846Z,2.45
2022-12-04T04:27:59.925Z,2.50
2022-12-04T04:31:07.115Z,2.41
2022-12-04T04:34:23.678Z,2.39
2022-12-04T04:37:29.126Z,2.39
2022-12-04T04:40:38.436Z,2.45
2022-12-04T04:43:45.569Z,2.51
2022-12-04T04:46:54.701Z,2.55
2022-12-04T04:49:58.345Z,2.64
2022-12-04T04:53:05.861Z,2.69
2022-12-04T04:56:11.415Z,2.68
2022-12-04T04:59:17.003Z,2.77
2022-12-04T05:02:19.976Z,2.82
2022-12-04T05:05:22.363Z,2.75
2022-12-04T05:08:25.256Z,2.69
2022-12-04T05:11:28.251Z,2.67
2022-12-04T05:14:32.164Z,2.75
2022-12-04T05:17:38.428Z,2.72
2022-12-04T05:20:40.947Z,2.67
2022-12-04T05:23:43.815Z,2.65
2022-12-04T05:26:46.997Z,2.63
2022-12-04T05:29:53.898Z,2.58
2022-12-04T05:32:57.161Z,2.51
2022-12-04T05:36:01.481Z,2.51
2022-12-04T05:39:03.692Z,2.49
2022-12-04T05:42:10.257Z,2.49
2022-12-04T05:45:12.493Z,2.47
2022-12-04T05:48:19.685Z,2.45
2022-12-04T05:51:21.953Z,2.39
2022-12-04T05:54:25.724Z,2.34
2022-12-04T05:57:30.036Z,2.33
2022-12-04T06:00:34.009Z,2.41
2022-12-04T06:03:37.835Z,2.35
2022-12-04T06:06:45.921Z,2.35
2022-12-04T06:09:48.494Z,2.33
2022-12-04T06:12:52.132Z,2.26
2022-12-04T06:15:55.131Z,2.27
2022-12-04T06:19:00.145Z,2.27
2022-12-04T06:22:06.178Z,2.31
2022-12-04T06:25:10.003Z,2.27
2022-12-04T06:28:13.618Z,2.28
2022-12-04T06:31:20.804Z,2.30
2022-12-04T06:34:24.388Z,2.28
2022-12-04T06:37:28.126Z,2.24
2022-12-04T06:40:38.184Z,2.30
2022-12-04T06:43:43.123Z,2.33
2022-12-04T06:46:48.068Z,2.39
2022-12-04T06:49:56.458Z,2.46
2022-12-04T06:53:03.617Z,2.57
2022-12-04T06:56:16.709Z,2.61
2022-12-04T06:59:19.188Z,2.63
2022-12-04T07:02:23.201Z,2.74
2022-12-04T07:05:28.066Z,2.84
2022-12-04T07:08:30.183Z,2.89
2022-12-04T07:11:34.161Z,2.90
2022-12-04T07:14:40.273Z,2.94
2022-12-04T07:17:42.876Z,2.88
2022-12-04T07:20:46.082Z,2.97
2022-12-04T07:23:53.032Z,2.96
2022-12-04T07:26:57.063Z,3.03
2022-12-04T07:30:04.666Z,3.04
2022-12-04T07:33:08.245Z,3.13
2022-12-04T07:36:13.627Z,3.12
2022-12-04T07:39:16.360Z,3.16
2022-12-04T07:42:23.952Z,3.26
2022-12-04T07:45:28.502Z,3.24
2022-12-04T07:48:33.449Z,3.27
2022-12-04T07:51:38.540Z,3.38
2022-12-04T07:54:41.066Z,3.48
2022-12-04T07:57:44.012Z,3.50
2022-12-04T08:00:48.034Z,3.46
2022-12-04T08:03:51.928Z,3.65
2022-12-04T08:06:55.823Z,3.79
2022-12-04T08:10:01.081Z,3.85
2022-12-04T08:13:06.858Z,3.81
2022-12-04T08:16:11.149Z,3.86
2022-12-04T08:19:13.452Z,3.79
2022-12-04T08:22:20.477Z,3.83
2022-12-04T08:25:27.835Z,3.94
2022-12-04T08:28:31.354Z,4.01
2022-12-04T08:31:35.920Z,4.04
2022-12-04T08:34:38.915Z,4.15
2022-12-04T08:37:42.601Z,4.28
2022-12-04T08:40:45.618Z,4.40
2022-12-04T08:43:55.205Z,4.47
2022-12-04T08:46:58.364Z,4.68
2022-12-04T08:50:00.731Z,4.79
2022-12-04T08:53:05.994Z,4.83
2022-12-04T08:56:08.606Z,4.85
2022-12-04T08:59:14.058Z,5.01
2022-12-04T09:02:16.884Z,5.21
2022-12-04T09:05:22.446Z,5.10
2022-12-04T09:08:24.656Z,5.16
2022-12-04T09:11:28.138Z,5.17
2022-12-04T09:14:30.726Z,5.18
2022-12-04T09:17:34.720Z,5.18
2022-12-04T09:20:38.431Z,5.25
2022-12-04T09:23:41.918Z,5.29
2022-12-04T09:26:47.740Z,5.49
2022-12-04T09:29:51.217Z,5.54
2022-12-04T09:32:53.879Z,5.63
2022-12-04T09:35:56.900Z,5.67
2022-12-04T09:39:01.449Z,5.58
2022-12-04T09:42:13.230Z,5.78
2022-12-04T09:45:22.074Z,5.85
2022-12-04T09:48:30.965Z,5.80
2022-12-04T09:51:40.140Z,5.63
2022-12-04T09:54:44.518Z,5.87
2022-12-04T09:57:57.061Z,5.96
2022-12-04T10:01:03.846Z,5.97
2022-12-04T10:04:07.441Z,5.94
2022-12-04T10:07:12.824Z,6.16
2022-12-04T10:10:37.946Z,6.40
2022-12-04T10:14:03.679Z,6.47
2022-12-04T10:17:32.926Z,6.31
2022-12-04T10:20:47.483Z,6.43
2022-12-04T10:24:04.372Z,6.37
2022-12-04T10:27:23.148Z,6.30
2022-12-04T10:30:27.779Z,6.50
2022-12-04T10:33:46.240Z,6.60
2022-12-04T10:36:56.134Z,6.41
2022-12-04T10:40:22.089Z,6.67
2022-12-04T10:43:45.396Z,6.89
2022-12-04T10:46:48.112Z,6.92
2022-12-04T10:49:59.663Z,6.89
2022-12-04T10:53:05.593Z,6.91
2022-12-04T10:56:20.753Z,7.01
2022-12-04T10:59:24.224Z,7.09
2022-12-04T11:02:28.719Z,7.25
2022-12-04T11:05:31.430Z,7.36
2022-12-04T11:08:37.330Z,7.43
2022-12-04T11:11:40.952Z,7.54
2022-12-04T11:14:47.181Z,7.62
2022-12-04T11:17:50.272Z,7.61
2022-12-04T11:21:03.481Z,7.61
2022-12-04T11:24:19.428Z,7.58
2022-12-04T11:27:35.528Z,7.55
2022-12-04T11:30:40.333Z,7.50
2022-12-04T11:33:47.559Z,7.54
2022-12-04T11:36:53.215Z,7.70
2022-12-04T11:39:57.128Z,7.76
2022-12-04T11:42:59.757Z,7.79
2022-12-04T11:46:03.858Z,7.71
2022-12-04T11:49:07.261Z,7.69
2022-12-04T11:52:30.895Z,7.73
2022-12-04T11:55:46.383Z,7.81
2022-12-04T11:58:59.575Z,7.75
2022-12-04T12:02:23.909Z,7.81
2022-12-04T12:05:45.675Z,7.71
2022-12-04T12:08:49.835Z,7.88
2022-12-04T12:11:57.415Z,7.96
2022-12-04T12:15:21.147Z,7.91
2022-12-04T12:18:37.947Z,7.79
2022-12-04T12:21:49.801Z,7.80
2022-12-04T12:24:52.730Z,7.87
2022-12-04T12:27:55.218Z,7.88
2022-12-04T12:31:24.858Z,7.85
2022-12-04T12:34:33.829Z,7.76
2022-12-04T12:37:36.896Z,7.71
2022-12-04T12:40:57.193Z,7.76
2022-12-04T12:44:34.993Z,7.69
2022-12-04T12:47:41.955Z,7.78
2022-12-04T12:51:22.156Z,7.76
2022-12-04T12:54:36.175Z,7.68
2022-12-04T12:57:40.403Z,7.69
2022-12-04T13:00:46.369Z,7.78
2022-12-04T13:04:06.139Z,7.88
2022-12-04T13:07:18.278Z,7.87
2022-12-04T13:10:32.084Z,7.90
2022-12-04T13:14:09.749Z,7.86
2022-12-04T13:17:21.520Z,7.87
2022-12-04T13:20:38.668Z,7.68
2022-12-04T13:24:31.982Z,7.77
2022-12-04T13:27:43.815Z,7.78
2022-12-04T13:30:55.533Z,7.68
2022-12-04T13:34:01.063Z,7.74
2022-12-04T13:37:18.192Z,7.81
2022-12-04T13:40:26.783Z,7.82
2022-12-04T13:43:40.366Z,7.72
2022-12-04T13:47:00.037Z,7.60
2022-12-04T13:50:08.620Z,7.56
2022-12-04T13:53:46.962Z,7.50
2022-12-04T13:56:56.215Z,7.47
2022-12-04T14:00:07.811Z,7.32
2022-12-04T14:03:29.935Z,7.28
2022-12-04T14:06:39.266Z,7.34
2022-12-04T14:09:45.382Z,7.42
2022-12-04T14:13:09.721Z,7.30
2022-12-04T14:16:21.394Z,7.31
2022-12-04T14:20:01.776Z,7.19
2022-12-04T14:23:28.827Z,7.24
2022-12-04T14:27:03.607Z,7.22
2022-12-04T14:30:03.392Z,7.28
2022-12-04T14:33:18.981Z,7.26
2022-12-04T14:36:56.040Z,7.20
2022-12-04T14:40:01.165Z,7.10
2022-12-04T14:43:03.317Z,6.97
2022-12-04T14:46:28.335Z,7.01
2022-12-04T14:49:49.682Z,7.02
2022-12-04T14:53:08.231Z,6.98
2022-12-04T14:56:29.046Z,6.87
2022-12-04T14:59:45.619Z,6.82
2022-12-04T15:02:49.917Z,6.77
2022-12-04T15:06:03.581Z,6.80
2022-12-04T15:09:37.680Z,6.86
2022-12-04T15:12:46.035Z,6.83
2022-12-04T15:15:49.814Z,6.76
2022-12-04T15:19:00.882Z,6.68
2022-12-04T15:22:12.839Z,6.78
2022-12-04T15:25:25.202Z,6.89
2022-12-04T15:28:27.596Z,6.82
2022-12-04T15:31:47.453Z,6.82
2022-12-04T15:34:56.214Z,6.76
2022-12-04T15:37:58.886Z,6.71
2022-12-04T15:41:21.269Z,6.69
2022-12-04T15:44:33.610Z,6.66
2022-12-04T15:47:43.075Z,6.62
2022-12-04T15:50:58.454Z,6.59
2022-12-04T15:54:04.304Z,6.57
2022-12-04T15:57:25.419Z,6.56
2022-12-04T16:00:28.172Z,6.62
2022-12-04T16:03:32.395Z,6.65
2022-12-04T16:06:45.715Z,6.66
2022-12-04T16:10:02.886Z,6.66
2022-12-04T16:13:06.624Z,6.73
2022-12-04T16:16:13.499Z,6.65
2022-12-04T16:19:31.756Z,6.62
2022-12-04T16:22:35.675Z,6.62
2022-12-04T16:25:44.273Z,6.59
2022-12-04T16:28:48.077Z,6.49
2022-12-04T16:31:52.062Z,6.46
2022-12-04T16:34:56.494Z,6.53
2022-12-04T16:38:03.817Z,6.54
2022-12-04T16:41:20.449Z,6.59
2022-12-04T16:44:25.778Z,6.51
2022-12-04T16:47:28.340Z,6.60
2022-12-04T16:50:44.077Z,6.57
2022-12-04T16:53:48.373Z,6.47
2022-12-04T16:56:51.390Z,6.47
2022-12-04T16:59:53.852Z,6.47
2022-12-04T17:03:07.992Z,6.40
2022-12-04T17:06:15.906Z,6.35
2022-12-04T17:09:21.721Z,6.29
2022-12-04T17:12:23.840Z,6.24
2022-12-04T17:15:35.238Z,6.14
2022-12-04T17:18:41.094Z,6.16
2022-12-04T17:21:45.068Z,6.18
2022-12-04T17:24:57.129Z,6.22
2022-12-04T17:28:00.422Z,6.19
2022-12-04T17:31:06.506Z,6.14
2022-12-04T17:34:12.785Z,6.14
2022-12-04T17:37:21.364Z,6.10
2022-12-04T17:40:26.031Z,6.15
2022-12-04T17:43:34.268Z,6.08
2022-12-04T17:46:36.517Z,6.05
2022-12-04T17:49:39.047Z,6.15
2022-12-04T17:52:44.759Z,6.12
2022-12-04T17:55:47.548Z,6.10
2022-12-04T17:58:53.703Z,6.11
2022-12-04T18:01:56.364Z,6.00
2022-12-04T18:05:01.467Z,5.99
2022-12-04T18:08:03.888Z,5.95
2022-12-04T18:11:06.897Z,5.93
2022-12-04T18:14:13.961Z,5.87
2022-12-04T18:17:21.196Z,5.84
2022-12-04T18:20:27.459Z,5.84
2022-12-04T18:23:30.783Z,5.86
2022-12-04T18:26:35.757Z,5.83
2022-12-04T18:29:37.939Z,5.82
2022-12-04T18:32:45.927Z,5.84
2022-12-04T18:35:55.965Z,5.78
2022-12-04T18:39:01.825Z,5.91
2022-12-04T18:42:04.444Z,5.85
2022-12-04T18:45:09.482Z,5.82
2022-12-04T18:48:13.094Z,5.77
2022-12-04T18:51:27.913Z,5.72
2022-12-04T18:54:40.003Z,5.69
2022-12-04T18:57:44.580Z,5.68
2022-12-04T19:00:49.955Z,5.69
2022-12-04T19:03:55.269Z,5.65
2022-12-04T19:07:01.695Z,5.70
2022-12-04T19:10:12.992Z,5.71
2022-12-04T19:13:18.397Z,5.64
2022-12-04T19:16:20.948Z,5.57
2022-12-04T19:19:31.450Z,5.60
2022-12-04T19:22:39.278Z,5.59
2022-12-04T19:25:42.536Z,5.67
2022-12-04T19:28:49.738Z,5.73
2022-12-04T19:31:59.853Z,5.72
2022-12-04T19:35:02.267Z,5.77
2022-12-04T19:38:13.442Z,5.68
2022-12-04T19:41:20.847Z,5.76
2022-12-04T19:48:01.948Z,5.76
2022-12-04T19:51:11.027Z,5.78
2022-12-04T19:54:14.013Z,5.72
2022-12-04T19:57:21.731Z,5.68
2022-12-04T20:00:29.388Z,5.71
2022-12-04T20:03:45.522Z,5.69
2022-12-04T20:06:49.856Z,5.68
2022-12-04T20:09:54.844Z,5.69
2022-12-04T20:12:57.783Z,5.64
2022-12-04T20:16:05.633Z,5.65
2022-12-04T20:19:15.095Z,5.61
2022-12-04T20:22:21.066Z,5.64
2022-12-04T20:25:24.157Z,5.48
2022-12-04T20:28:31.430Z,5.46
2022-12-04T20:31:35.254Z,5.50
2022-12-04T20:34:43.272Z,5.55
2022-12-04T20:37:50.821Z,5.56
2022-12-04T20:40:57.929Z,5.52
2022-12-04T20:44:00.992Z,5.46
2022-12-04T20:47:03.097Z,5.51
2022-12-04T20:50:18.321Z,5.59
2022-12-04T20:53:21.158Z,5.60
2022-12-04T20:56:27.700Z,5.59
2022-12-04T20:59:32.433Z,5.58
2022-12-04T21:02:35.198Z,5.62
2022-12-04T21:05:37.621Z,5.59
2022-12-04T21:09:00.523Z,5.51
2022-12-04T21:12:02.817Z,5.50
2022-12-04T21:15:23.735Z,5.55
2022-12-04T21:18:29.641Z,5.50
2022-12-04T21:21:33.141Z,5.48
2022-12-04T21:24:45.906Z,5.48
2022-12-04T21:28:04.965Z,5.46
2022-12-04T21:31:09.508Z,5.45
2022-12-04T21:34:12.819Z,5.50
2022-12-04T21:37:19.628Z,5.47
2022-12-04T21:40:21.782Z,5.44
2022-12-04T21:43:24.441Z,5.43
2022-12-04T21:46:29.845Z,5.41
2022-12-04T21:49:34.593Z,5.38
2022-12-04T21:52:40.260Z,5.32
2022-12-04T21:55:49.765Z,5.38
2022-12-04T21:58:57.506Z,5.29
2022-12-04T22:02:02.391Z,5.34
2022-12-04T22:05:08.144Z,5.38
2022-12-04T22:08:12.265Z,5.34
2022-12-04T22:11:15.397Z,5.36
2022-12-04T22:14:18.484Z,5.32
2022-12-04T22:17:25.663Z,5.29
2022-12-04T22:20:34.378Z,5.29
2022-12-04T22:23:37.186Z,5.31
2022-12-04T22:26:42.383Z,5.26
2022-12-04T22:29:51.856Z,5.22
2022-12-04T22:32:55.250Z,5.23
2022-12-04T22:36:01.609Z,5.20
2022-12-04T22:39:11.871Z,5.20
2022-12-04T22:42:20.846Z,5.19
2022-12-04T22:45:23.109Z,5.13
2022-12-04T22:48:30.023Z,5.12
2022-12-04T22:51:32.636Z,5.07
2022-12-04T22:54:35.360Z,5.05
2022-12-04T22:57:39.931Z,5.00
2022-12-04T23:00:43.205Z,5.04
2022-12-04T23:03:51.899Z,5.10
2022-12-04T23:07:01.214Z,5.08
2022-12-04T23:10:04.188Z,5.08
2022-12-04T23:13:11.256Z,5.03
2022-12-04T23:16:19.727Z,4.88
2022-12-04T23:19:24.815Z,4.93
2022-12-04T23:22:30.523Z,4.99
2022-12-04T23:25:40.030Z,4.95
2022-12-04T23:28:51.934Z,4.93
2022-12-04T23:31:54.785Z,4.93
2022-12-04T23:34:59.966Z,4.91
2022-12-04T23:38:03.577Z,4.83
2022-12-04T23:41:11.005Z,4.90
2022-12-04T23:44:13.239Z,4.85
2022-12-04T23:47:15.851Z,4.93
2022-12-04T23:50:19.974Z,5.02
2022-12-04T23:53:24.250Z,4.87
2022-12-04T23:56:31.117Z,4.95
2022-12-04T23:59:40.360Z,4.93
